sensor_id;sensor_type;location;lat;lon;timestamp;P1;durP1;ratioP1;P2;durP2;ratioP2
4517;SDS011;2271;49.464;11.070;2022-10-31T00:00:59;14.13;;;6.47;;
4517;SDS011;2271;49.464;11.070;2022-10-31T00:03:25;16.65;;;6.68;;
4517;SDS011;2271;49.464;11.070;2022-10-31T00:05:51;11.52;;;6.32;;
4517;SDS011;2271;49.464;11.070;2022-10-31T00:08:17;12.85;;;6.40;;
4517;SDS011;2271;49.464;11.070;2022-10-31T00:10:44;13.55;;;6.13;;
4517;SDS011;2271;49.464;11.070;2022-10-31T00:13:11;12.55;;;6.07;;
4517;SDS011;2271;49.464;11.070;2022-10-31T00:15:38;10.98;;;5.90;;
4517;SDS011;2271;49.464;11.070;2022-10-31T00:18:05;10.35;;;5.82;;
4517;SDS011;2271;49.464;11.070;2022-10-31T00:20:32;12.65;;;6.88;;
4517;SDS011;2271;49.464;11.070;2022-10-31T00:22:59;12.70;;;6.18;;
4517;SDS011;2271;49.464;11.070;2022-10-31T00:25:26;12.82;;;6.18;;
4517;SDS011;2271;49.464;11.070;2022-10-31T00:27:52;10.80;;;5.97;;
4517;SDS011;2271;49.464;11.070;2022-10-31T00:30:18;14.75;;;5.85;;
4517;SDS011;2271;49.464;11.070;2022-10-31T00:32:44;14.15;;;6.40;;
4517;SDS011;2271;49.464;11.070;2022-10-31T00:35:10;13.45;;;6.47;;
4517;SDS011;2271;49.464;11.070;2022-10-31T00:37:35;7.70;;;5.47;;
4517;SDS011;2271;49.464;11.070;2022-10-31T00:40:01;11.73;;;6.55;;
4517;SDS011;2271;49.464;11.070;2022-10-31T00:42:27;12.55;;;5.93;;
4517;SDS011;2271;49.464;11.070;2022-10-31T00:44:52;14.43;;;5.78;;
4517;SDS011;2271;49.464;11.070;2022-10-31T00:47:18;17.50;;;6.40;;
4517;SDS011;2271;49.464;11.070;2022-10-31T00:49:43;12.65;;;6.72;;
4517;SDS011;2271;49.464;11.070;2022-10-31T00:52:09;13.15;;;5.53;;
4517;SDS011;2271;49.464;11.070;2022-10-31T00:54:35;12.68;;;5.47;;
4517;SDS011;2271;49.464;11.070;2022-10-31T00:57:00;11.95;;;5.75;;
4517;SDS011;2271;49.464;11.070;2022-10-31T00:59:26;8.93;;;5.80;;
4517;SDS011;2271;49.464;11.070;2022-10-31T01:01:51;12.45;;;5.78;;
4517;SDS011;2271;49.464;11.070;2022-10-31T01:04:17;8.82;;;5.38;;
4517;SDS011;2271;49.464;11.070;2022-10-31T01:06:43;7.30;;;4.63;;
4517;SDS011;2271;49.464;11.070;2022-10-31T01:09:08;9.82;;;4.93;;
4517;SDS011;2271;49.464;11.070;2022-10-31T01:11:34;9.63;;;4.82;;
4517;SDS011;2271;49.464;11.070;2022-10-31T01:13:59;11.27;;;5.63;;
4517;SDS011;2271;49.464;11.070;2022-10-31T01:16:25;10.40;;;5.18;;
4517;SDS011;2271;49.464;11.070;2022-10-31T01:18:52;14.38;;;5.78;;
4517;SDS011;2271;49.464;11.070;2022-10-31T01:21:19;11.52;;;6.15;;
4517;SDS011;2271;49.464;11.070;2022-10-31T01:23:49;6.75;;;4.80;;
4517;SDS011;2271;49.464;11.070;2022-10-31T01:26:17;11.25;;;5.53;;
4517;SDS011;2271;49.464;11.070;2022-10-31T01:28:45;11.85;;;6.07;;
4517;SDS011;2271;49.464;11.070;2022-10-31T01:31:13;12.98;;;6.35;;
4517;SDS011;2271;49.464;11.070;2022-10-31T01:33:40;9.35;;;5.88;;
4517;SDS011;2271;49.464;11.070;2022-10-31T01:36:21;12.45;;;6.22;;
4517;SDS011;2271;49.464;11.070;2022-10-31T01:38:52;10.43;;;6.13;;
4517;SDS011;2271;49.464;11.070;2022-10-31T01:41:21;13.55;;;5.70;;
4517;SDS011;2271;49.464;11.070;2022-10-31T01:46:17;9.27;;;5.30;;
4517;SDS011;2271;49.464;11.070;2022-10-31T01:48:54;8.38;;;5.40;;
4517;SDS011;2271;49.464;11.070;2022-10-31T01:51:23;9.82;;;5.35;;
4517;SDS011;2271;49.464;11.070;2022-10-31T01:53:54;11.90;;;5.82;;
4517;SDS011;2271;49.464;11.070;2022-10-31T01:56:23;11.90;;;5.85;;
4517;SDS011;2271;49.464;11.070;2022-10-31T01:58:50;17.83;;;5.78;;
4517;SDS011;2271;49.464;11.070;2022-10-31T02:01:16;13.70;;;4.72;;
4517;SDS011;2271;49.464;11.070;2022-10-31T02:03:42;7.75;;;5.28;;
4517;SDS011;2271;49.464;11.070;2022-10-31T02:06:13;10.40;;;6.05;;
4517;SDS011;2271;49.464;11.070;2022-10-31T02:08:56;10.77;;;5.70;;
4517;SDS011;2271;49.464;11.070;2022-10-31T02:11:23;14.60;;;5.97;;
4517;SDS011;2271;49.464;11.070;2022-10-31T02:13:49;9.23;;;5.60;;
4517;SDS011;2271;49.464;11.070;2022-10-31T02:16:15;10.85;;;5.85;;
4517;SDS011;2271;49.464;11.070;2022-10-31T02:18:41;15.82;;;6.25;;
4517;SDS011;2271;49.464;11.070;2022-10-31T02:23:54;7.78;;;5.43;;
4517;SDS011;2271;49.464;11.070;2022-10-31T02:32:24;16.25;;;5.20;;
4517;SDS011;2271;49.464;11.070;2022-10-31T02:34:58;10.55;;;6.30;;
4517;SDS011;2271;49.464;11.070;2022-10-31T02:40:26;8.38;;;5.07;;
4517;SDS011;2271;49.464;11.070;2022-10-31T02:43:08;9.07;;;5.15;;
4517;SDS011;2271;49.464;11.070;2022-10-31T02:48:27;8.77;;;4.97;;
4517;SDS011;2271;49.464;11.070;2022-10-31T02:50:55;10.35;;;5.03;;
4517;SDS011;2271;49.464;11.070;2022-10-31T02:53:23;8.85;;;5.35;;
4517;SDS011;2271;49.464;11.070;2022-10-31T02:55:59;11.27;;;5.45;;
4517;SDS011;2271;49.464;11.070;2022-10-31T02:58:40;7.30;;;5.05;;
4517;SDS011;2271;49.464;11.070;2022-10-31T03:09:34;7.00;;;5.25;;
4517;SDS011;2271;49.464;11.070;2022-10-31T03:12:08;9.40;;;5.43;;
4517;SDS011;2271;49.464;11.070;2022-10-31T03:14:48;12.82;;;5.68;;
4517;SDS011;2271;49.464;11.070;2022-10-31T03:17:28;9.88;;;4.80;;
4517;SDS011;2271;49.464;11.070;2022-10-31T03:20:13;10.98;;;5.32;;
4517;SDS011;2271;49.464;11.070;2022-10-31T03:22:42;7.55;;;5.20;;
4517;SDS011;2271;49.464;11.070;2022-10-31T03:25:09;8.18;;;4.70;;
4517;SDS011;2271;49.464;11.070;2022-10-31T03:27:35;6.45;;;4.90;;
4517;SDS011;2271;49.464;11.070;2022-10-31T03:30:05;7.32;;;5.97;;
4517;SDS011;2271;49.464;11.070;2022-10-31T03:32:39;9.82;;;4.80;;
4517;SDS011;2271;49.464;11.070;2022-10-31T03:35:09;7.53;;;5.38;;
4517;SDS011;2271;49.464;11.070;2022-10-31T03:37:40;9.43;;;5.30;;
4517;SDS011;2271;49.464;11.070;2022-10-31T03:40:07;8.38;;;5.07;;
4517;SDS011;2271;49.464;11.070;2022-10-31T03:42:37;10.35;;;4.68;;
4517;SDS011;2271;49.464;11.070;2022-10-31T03:47:39;8.30;;;4.75;;
4517;SDS011;2271;49.464;11.070;2022-10-31T03:50:06;12.52;;;5.05;;
4517;SDS011;2271;49.464;11.070;2022-10-31T03:55:40;10.60;;;5.38;;
4517;SDS011;2271;49.464;11.070;2022-10-31T03:58:18;7.35;;;4.80;;
4517;SDS011;2271;49.464;11.070;2022-10-31T04:00:51;12.52;;;5.95;;
4517;SDS011;2271;49.464;11.070;2022-10-31T04:03:26;10.45;;;5.90;;
4517;SDS011;2271;49.464;11.070;2022-10-31T04:05:56;15.50;;;5.18;;
4517;SDS011;2271;49.464;11.070;2022-10-31T04:08:26;14.18;;;5.20;;
4517;SDS011;2271;49.464;11.070;2022-10-31T04:10:55;8.57;;;5.63;;
4517;SDS011;2271;49.464;11.070;2022-10-31T04:13:24;9.00;;;5.32;;
4517;SDS011;2271;49.464;11.070;2022-10-31T04:15:53;6.40;;;5.03;;
4517;SDS011;2271;49.464;11.070;2022-10-31T04:18:21;12.27;;;5.00;;
4517;SDS011;2271;49.464;11.070;2022-10-31T04:20:48;11.27;;;4.65;;
4517;SDS011;2271;49.464;11.070;2022-10-31T04:23:24;9.85;;;5.38;;
4517;SDS011;2271;49.464;11.070;2022-10-31T04:25:51;9.00;;;5.22;;
4517;SDS011;2271;49.464;11.070;2022-10-31T04:28:17;10.95;;;5.32;;
4517;SDS011;2271;49.464;11.070;2022-10-31T04:30:43;11.13;;;5.35;;
4517;SDS011;2271;49.464;11.070;2022-10-31T04:33:08;9.43;;;5.28;;
4517;SDS011;2271;49.464;11.070;2022-10-31T04:35:34;12.13;;;5.38;;
4517;SDS011;2271;49.464;11.070;2022-10-31T04:38:00;14.23;;;5.25;;
4517;SDS011;2271;49.464;11.070;2022-10-31T04:40:25;6.97;;;5.00;;
4517;SDS011;2271;49.464;11.070;2022-10-31T04:42:51;8.90;;;5.63;;
4517;SDS011;2271;49.464;11.070;2022-10-31T04:45:17;8.82;;;4.78;;
4517;SDS011;2271;49.464;11.070;2022-10-31T04:47:42;7.57;;;5.03;;
4517;SDS011;2271;49.464;11.070;2022-10-31T04:50:08;10.45;;;5.78;;
4517;SDS011;2271;49.464;11.070;2022-10-31T04:52:40;8.80;;;4.85;;
4517;SDS011;2271;49.464;11.070;2022-10-31T04:55:07;8.20;;;5.20;;
4517;SDS011;2271;49.464;11.070;2022-10-31T04:57:39;11.52;;;5.15;;
4517;SDS011;2271;49.464;11.070;2022-10-31T05:00:13;10.95;;;5.15;;
4517;SDS011;2271;49.464;11.070;2022-10-31T05:02:53;7.15;;;4.85;;
4517;SDS011;2271;49.464;11.070;2022-10-31T05:05:21;7.88;;;5.10;;
4517;SDS011;2271;49.464;11.070;2022-10-31T05:07:49;7.47;;;5.03;;
4517;SDS011;2271;49.464;11.070;2022-10-31T05:10:17;7.88;;;4.85;;
4517;SDS011;2271;49.464;11.070;2022-10-31T05:12:49;8.77;;;4.60;;
4517;SDS011;2271;49.464;11.070;2022-10-31T05:15:32;6.90;;;4.03;;
4517;SDS011;2271;49.464;11.070;2022-10-31T05:17:58;9.25;;;4.95;;
4517;SDS011;2271;49.464;11.070;2022-10-31T05:20:26;10.85;;;5.72;;
4517;SDS011;2271;49.464;11.070;2022-10-31T05:22:53;8.98;;;3.95;;
4517;SDS011;2271;49.464;11.070;2022-10-31T05:25:20;5.57;;;4.07;;
4517;SDS011;2271;49.464;11.070;2022-10-31T05:27:48;8.30;;;5.30;;
4517;SDS011;2271;49.464;11.070;2022-10-31T05:30:17;11.25;;;5.22;;
4517;SDS011;2271;49.464;11.070;2022-10-31T05:32:45;12.68;;;5.05;;
4517;SDS011;2271;49.464;11.070;2022-10-31T05:35:13;9.10;;;5.00;;
4517;SDS011;2271;49.464;11.070;2022-10-31T05:37:40;13.07;;;4.55;;
4517;SDS011;2271;49.464;11.070;2022-10-31T05:40:06;7.65;;;4.65;;
4517;SDS011;2271;49.464;11.070;2022-10-31T05:42:34;12.50;;;5.10;;
4517;SDS011;2271;49.464;11.070;2022-10-31T05:45:00;9.90;;;4.95;;
4517;SDS011;2271;49.464;11.070;2022-10-31T05:47:26;10.80;;;4.70;;
4517;SDS011;2271;49.464;11.070;2022-10-31T05:49:52;10.48;;;4.20;;
4517;SDS011;2271;49.464;11.070;2022-10-31T05:52:18;9.00;;;5.00;;
4517;SDS011;2271;49.464;11.070;2022-10-31T05:54:43;11.20;;;5.35;;
4517;SDS011;2271;49.464;11.070;2022-10-31T05:57:09;11.48;;;5.85;;
4517;SDS011;2271;49.464;11.070;2022-10-31T05:59:35;11.10;;;5.38;;
4517;SDS011;2271;49.464;11.070;2022-10-31T06:02:00;9.40;;;5.20;;
4517;SDS011;2271;49.464;11.070;2022-10-31T06:04:26;9.60;;;4.75;;
4517;SDS011;2271;49.464;11.070;2022-10-31T06:06:51;6.75;;;4.18;;
4517;SDS011;2271;49.464;11.070;2022-10-31T06:09:17;10.25;;;4.65;;
4517;SDS011;2271;49.464;11.070;2022-10-31T06:11:43;7.75;;;5.35;;
4517;SDS011;2271;49.464;11.070;2022-10-31T06:14:08;6.30;;;4.45;;
4517;SDS011;2271;49.464;11.070;2022-10-31T06:16:34;6.35;;;4.22;;
4517;SDS011;2271;49.464;11.070;2022-10-31T06:18:59;12.65;;;5.15;;
4517;SDS011;2271;49.464;11.070;2022-10-31T06:21:25;7.65;;;4.93;;
4517;SDS011;2271;49.464;11.070;2022-10-31T06:23:51;6.13;;;4.30;;
4517;SDS011;2271;49.464;11.070;2022-10-31T06:26:16;8.38;;;4.20;;
4517;SDS011;2271;49.464;11.070;2022-10-31T06:28:42;11.88;;;5.20;;
4517;SDS011;2271;49.464;11.070;2022-10-31T06:31:08;9.57;;;4.75;;
4517;SDS011;2271;49.464;11.070;2022-10-31T06:33:33;10.90;;;4.40;;
4517;SDS011;2271;49.464;11.070;2022-10-31T06:35:59;4.70;;;4.25;;
4517;SDS011;2271;49.464;11.070;2022-10-31T06:38:26;7.65;;;4.00;;
4517;SDS011;2271;49.464;11.070;2022-10-31T06:40:52;7.32;;;4.70;;
4517;SDS011;2271;49.464;11.070;2022-10-31T06:43:18;9.10;;;5.07;;
4517;SDS011;2271;49.464;11.070;2022-10-31T06:45:43;9.77;;;5.88;;
4517;SDS011;2271;49.464;11.070;2022-10-31T06:48:09;7.65;;;4.85;;
4517;SDS011;2271;49.464;11.070;2022-10-31T06:50:35;10.32;;;6.15;;
4517;SDS011;2271;49.464;11.070;2022-10-31T06:53:00;8.32;;;4.55;;
4517;SDS011;2271;49.464;11.070;2022-10-31T06:55:26;8.27;;;4.80;;
4517;SDS011;2271;49.464;11.070;2022-10-31T06:57:56;7.43;;;5.47;;
4517;SDS011;2271;49.464;11.070;2022-10-31T07:00:24;11.07;;;4.97;;
4517;SDS011;2271;49.464;11.070;2022-10-31T07:02:58;10.05;;;4.80;;
4517;SDS011;2271;49.464;11.070;2022-10-31T07:05:25;8.60;;;4.97;;
4517;SDS011;2271;49.464;11.070;2022-10-31T07:07:52;4.88;;;4.28;;
4517;SDS011;2271;49.464;11.070;2022-10-31T07:10:19;9.38;;;4.63;;
4517;SDS011;2271;49.464;11.070;2022-10-31T07:12:44;9.70;;;5.68;;
4517;SDS011;2271;49.464;11.070;2022-10-31T07:15:10;10.02;;;5.07;;
4517;SDS011;2271;49.464;11.070;2022-10-31T07:17:36;14.15;;;5.60;;
4517;SDS011;2271;49.464;11.070;2022-10-31T07:20:01;10.25;;;5.70;;
4517;SDS011;2271;49.464;11.070;2022-10-31T07:22:34;10.38;;;5.47;;
4517;SDS011;2271;49.464;11.070;2022-10-31T07:25:00;12.55;;;5.47;;
4517;SDS011;2271;49.464;11.070;2022-10-31T07:27:26;8.40;;;5.18;;
4517;SDS011;2271;49.464;11.070;2022-10-31T07:29:52;8.18;;;5.18;;
4517;SDS011;2271;49.464;11.070;2022-10-31T07:32:17;9.32;;;5.65;;
4517;SDS011;2271;49.464;11.070;2022-10-31T07:34:43;10.15;;;6.47;;
4517;SDS011;2271;49.464;11.070;2022-10-31T07:37:09;11.13;;;5.28;;
4517;SDS011;2271;49.464;11.070;2022-10-31T07:39:34;8.35;;;5.85;;
4517;SDS011;2271;49.464;11.070;2022-10-31T07:42:00;11.52;;;5.75;;
4517;SDS011;2271;49.464;11.070;2022-10-31T07:44:25;11.18;;;6.30;;
4517;SDS011;2271;49.464;11.070;2022-10-31T07:46:51;9.88;;;5.82;;
4517;SDS011;2271;49.464;11.070;2022-10-31T07:49:17;15.63;;;6.63;;
4517;SDS011;2271;49.464;11.070;2022-10-31T07:51:42;12.98;;;6.43;;
4517;SDS011;2271;49.464;11.070;2022-10-31T07:54:08;9.70;;;6.28;;
4517;SDS011;2271;49.464;11.070;2022-10-31T07:56:33;10.05;;;5.80;;
4517;SDS011;2271;49.464;11.070;2022-10-31T07:58:59;9.75;;;5.35;;
4517;SDS011;2271;49.464;11.070;2022-10-31T08:01:24;10.45;;;5.45;;
4517;SDS011;2271;49.464;11.070;2022-10-31T08:03:50;7.18;;;4.93;;
4517;SDS011;2271;49.464;11.070;2022-10-31T08:06:16;12.02;;;6.30;;
4517;SDS011;2271;49.464;11.070;2022-10-31T08:08:41;8.73;;;4.75;;
4517;SDS011;2271;49.464;11.070;2022-10-31T08:11:07;9.48;;;5.95;;
4517;SDS011;2271;49.464;11.070;2022-10-31T08:13:32;9.60;;;5.35;;
4517;SDS011;2271;49.464;11.070;2022-10-31T08:15:58;9.93;;;5.78;;
4517;SDS011;2271;49.464;11.070;2022-10-31T08:18:28;10.65;;;5.65;;
4517;SDS011;2271;49.464;11.070;2022-10-31T08:20:54;21.02;;;11.75;;
4517;SDS011;2271;49.464;11.070;2022-10-31T08:23:20;11.25;;;5.78;;
4517;SDS011;2271;49.464;11.070;2022-10-31T08:25:47;12.95;;;6.30;;
4517;SDS011;2271;49.464;11.070;2022-10-31T08:28:13;14.02;;;5.63;;
4517;SDS011;2271;49.464;11.070;2022-10-31T08:30:39;10.05;;;6.07;;
4517;SDS011;2271;49.464;11.070;2022-10-31T08:33:08;9.98;;;6.75;;
4517;SDS011;2271;49.464;11.070;2022-10-31T08:35:38;9.25;;;6.10;;
4517;SDS011;2271;49.464;11.070;2022-10-31T08:38:04;9.30;;;5.88;;
4517;SDS011;2271;49.464;11.070;2022-10-31T08:40:31;12.80;;;6.78;;
4517;SDS011;2271;49.464;11.070;2022-10-31T08:43:02;10.70;;;5.53;;
4517;SDS011;2271;49.464;11.070;2022-10-31T08:45:29;13.20;;;6.68;;
4517;SDS011;2271;49.464;11.070;2022-10-31T08:47:57;10.77;;;6.55;;
4517;SDS011;2271;49.464;11.070;2022-10-31T08:50:28;12.68;;;6.40;;
4517;SDS011;2271;49.464;11.070;2022-10-31T08:53:02;11.30;;;7.10;;
4517;SDS011;2271;49.464;11.070;2022-10-31T08:55:29;14.43;;;6.55;;
4517;SDS011;2271;49.464;11.070;2022-10-31T08:57:56;11.95;;;7.13;;
4517;SDS011;2271;49.464;11.070;2022-10-31T09:00:22;10.27;;;7.00;;
4517;SDS011;2271;49.464;11.070;2022-10-31T09:02:54;15.10;;;7.43;;
4517;SDS011;2271;49.464;11.070;2022-10-31T09:05:20;10.55;;;6.18;;
4517;SDS011;2271;49.464;11.070;2022-10-31T09:07:46;13.80;;;7.82;;
4517;SDS011;2271;49.464;11.070;2022-10-31T09:10:11;9.30;;;6.88;;
4517;SDS011;2271;49.464;11.070;2022-10-31T09:12:37;8.98;;;6.57;;
4517;SDS011;2271;49.464;11.070;2022-10-31T09:15:02;13.73;;;7.60;;
4517;SDS011;2271;49.464;11.070;2022-10-31T09:17:31;9.02;;;6.85;;
4517;SDS011;2271;49.464;11.070;2022-10-31T09:19:57;13.02;;;6.93;;
4517;SDS011;2271;49.464;11.070;2022-10-31T09:22:22;9.68;;;6.82;;
4517;SDS011;2271;49.464;11.070;2022-10-31T09:24:48;17.90;;;7.18;;
4517;SDS011;2271;49.464;11.070;2022-10-31T09:27:13;10.25;;;6.88;;
4517;SDS011;2271;49.464;11.070;2022-10-31T09:29:39;15.20;;;6.72;;
4517;SDS011;2271;49.464;11.070;2022-10-31T09:32:05;11.57;;;6.88;;
4517;SDS011;2271;49.464;11.070;2022-10-31T09:34:30;13.18;;;7.82;;
4517;SDS011;2271;49.464;11.070;2022-10-31T09:36:56;10.85;;;7.65;;
4517;SDS011;2271;49.464;11.070;2022-10-31T09:39:22;18.08;;;7.50;;
4517;SDS011;2271;49.464;11.070;2022-10-31T09:44:53;15.52;;;8.32;;
4517;SDS011;2271;49.464;11.070;2022-10-31T09:52:38;11.38;;;6.75;;
4517;SDS011;2271;49.464;11.070;2022-10-31T09:55:30;17.50;;;8.15;;
4517;SDS011;2271;49.464;11.070;2022-10-31T09:58:01;18.20;;;7.85;;
4517;SDS011;2271;49.464;11.070;2022-10-31T10:00:27;14.73;;;8.15;;
4517;SDS011;2271;49.464;11.070;2022-10-31T10:03:06;22.20;;;8.63;;
4517;SDS011;2271;49.464;11.070;2022-10-31T10:08:26;20.88;;;7.53;;
4517;SDS011;2271;49.464;11.070;2022-10-31T10:22:16;10.18;;;7.07;;
4517;SDS011;2271;49.464;11.070;2022-10-31T10:25:01;12.07;;;6.78;;
4517;SDS011;2271;49.464;11.070;2022-10-31T10:27:52;11.20;;;7.18;;
4517;SDS011;2271;49.464;11.070;2022-10-31T10:30:41;11.20;;;7.60;;
4517;SDS011;2271;49.464;11.070;2022-10-31T10:33:11;10.20;;;6.97;;
4517;SDS011;2271;49.464;11.070;2022-10-31T10:36:04;12.82;;;7.68;;
4517;SDS011;2271;49.464;11.070;2022-10-31T10:41:14;11.88;;;7.95;;
4517;SDS011;2271;49.464;11.070;2022-10-31T10:43:42;17.17;;;7.63;;
4517;SDS011;2271;49.464;11.070;2022-10-31T10:49:18;12.45;;;7.78;;
4517;SDS011;2271;49.464;11.070;2022-10-31T10:52:11;15.82;;;7.18;;
4517;SDS011;2271;49.464;11.070;2022-10-31T10:54:50;14.93;;;6.97;;
4517;SDS011;2271;49.464;11.070;2022-10-31T10:57:32;14.30;;;7.07;;
4517;SDS011;2271;49.464;11.070;2022-10-31T11:00:22;12.65;;;6.95;;
4517;SDS011;2271;49.464;11.070;2022-10-31T11:02:49;16.45;;;7.88;;
4517;SDS011;2271;49.464;11.070;2022-10-31T11:07:59;14.07;;;6.80;;
4517;SDS011;2271;49.464;11.070;2022-10-31T11:10:24;13.25;;;7.65;;
4517;SDS011;2271;49.464;11.070;2022-10-31T11:15:37;18.40;;;7.32;;
4517;SDS011;2271;49.464;11.070;2022-10-31T11:18:22;17.27;;;7.90;;
4517;SDS011;2271;49.464;11.070;2022-10-31T11:20:51;13.00;;;7.88;;
4517;SDS011;2271;49.464;11.070;2022-10-31T11:23:18;14.25;;;7.80;;
4517;SDS011;2271;49.464;11.070;2022-10-31T11:26:04;12.77;;;7.53;;
4517;SDS011;2271;49.464;11.070;2022-10-31T11:28:32;11.73;;;6.68;;
4517;SDS011;2271;49.464;11.070;2022-10-31T11:31:08;9.63;;;5.32;;
4517;SDS011;2271;49.464;11.070;2022-10-31T11:33:45;6.80;;;3.97;;
4517;SDS011;2271;49.464;11.070;2022-10-31T11:36:23;9.05;;;5.35;;
4517;SDS011;2271;49.464;11.070;2022-10-31T11:38:52;9.90;;;5.38;;
4517;SDS011;2271;49.464;11.070;2022-10-31T11:41:24;11.75;;;5.65;;
4517;SDS011;2271;49.464;11.070;2022-10-31T11:44:00;7.82;;;5.25;;
4517;SDS011;2271;49.464;11.070;2022-10-31T11:46:32;10.75;;;6.32;;
4517;SDS011;2271;49.464;11.070;2022-10-31T11:49:03;9.30;;;5.30;;
4517;SDS011;2271;49.464;11.070;2022-10-31T11:51:32;12.82;;;5.50;;
4517;SDS011;2271;49.464;11.070;2022-10-31T11:54:00;11.48;;;5.03;;
4517;SDS011;2271;49.464;11.070;2022-10-31T11:56:27;8.40;;;5.18;;
4517;SDS011;2271;49.464;11.070;2022-10-31T11:59:12;7.28;;;5.75;;
4517;SDS011;2271;49.464;11.070;2022-10-31T12:01:46;17.10;;;6.32;;
4517;SDS011;2271;49.464;11.070;2022-10-31T12:04:16;12.15;;;6.65;;
4517;SDS011;2271;49.464;11.070;2022-10-31T12:06:45;9.25;;;6.25;;
4517;SDS011;2271;49.464;11.070;2022-10-31T12:11:49;21.30;;;5.80;;
4517;SDS011;2271;49.464;11.070;2022-10-31T12:22:03;8.00;;;5.20;;
4517;SDS011;2271;49.464;11.070;2022-10-31T12:32:31;7.65;;;6.28;;
4517;SDS011;2271;49.464;11.070;2022-10-31T12:37:57;10.43;;;6.70;;
4517;SDS011;2271;49.464;11.070;2022-10-31T12:41:12;14.07;;;5.63;;
4517;SDS011;2271;49.464;11.070;2022-10-31T12:46:25;10.05;;;6.72;;
4517;SDS011;2271;49.464;11.070;2022-10-31T12:54:39;15.00;;;6.80;;
4517;SDS011;2271;49.464;11.070;2022-10-31T12:57:19;11.20;;;6.15;;
4517;SDS011;2271;49.464;11.070;2022-10-31T13:00:04;12.25;;;7.03;;
4517;SDS011;2271;49.464;11.070;2022-10-31T13:02:44;6.93;;;6.05;;
4517;SDS011;2271;49.464;11.070;2022-10-31T13:07:55;12.10;;;6.78;;
4517;SDS011;2271;49.464;11.070;2022-10-31T13:13:24;12.13;;;6.15;;
4517;SDS011;2271;49.464;11.070;2022-10-31T13:16:00;10.52;;;6.68;;
4517;SDS011;2271;49.464;11.070;2022-10-31T13:18:31;16.00;;;6.45;;
4517;SDS011;2271;49.464;11.070;2022-10-31T13:21:05;7.80;;;5.80;;
4517;SDS011;2271;49.464;11.070;2022-10-31T13:23:36;11.40;;;7.45;;
4517;SDS011;2271;49.464;11.070;2022-10-31T13:26:10;8.70;;;6.22;;
4517;SDS011;2271;49.464;11.070;2022-10-31T13:28:44;12.27;;;7.03;;
4517;SDS011;2271;49.464;11.070;2022-10-31T13:31:17;12.88;;;6.93;;
4517;SDS011;2271;49.464;11.070;2022-10-31T13:33:44;12.52;;;7.28;;
4517;SDS011;2271;49.464;11.070;2022-10-31T13:36:24;10.70;;;7.22;;
4517;SDS011;2271;49.464;11.070;2022-10-31T13:44:24;12.80;;;7.53;;
4517;SDS011;2271;49.464;11.070;2022-10-31T13:46:52;15.15;;;7.63;;
4517;SDS011;2271;49.464;11.070;2022-10-31T13:49:41;8.60;;;6.43;;
4517;SDS011;2271;49.464;11.070;2022-10-31T13:54:35;14.02;;;6.90;;
4517;SDS011;2271;49.464;11.070;2022-10-31T13:57:06;9.27;;;6.90;;
4517;SDS011;2271;49.464;11.070;2022-10-31T13:59:38;9.80;;;7.38;;
4517;SDS011;2271;49.464;11.070;2022-10-31T14:02:13;7.95;;;7.13;;
4517;SDS011;2271;49.464;11.070;2022-10-31T14:04:45;12.40;;;6.97;;
4517;SDS011;2271;49.464;11.070;2022-10-31T14:07:18;10.02;;;7.20;;
4517;SDS011;2271;49.464;11.070;2022-10-31T14:12:35;15.05;;;7.07;;
4517;SDS011;2271;49.464;11.070;2022-10-31T14:20:26;9.30;;;7.07;;
4517;SDS011;2271;49.464;11.070;2022-10-31T14:28:42;10.65;;;6.78;;
4517;SDS011;2271;49.464;11.070;2022-10-31T14:36:51;10.10;;;7.07;;
4517;SDS011;2271;49.464;11.070;2022-10-31T14:53:13;112.03;;;36.80;;
4517;SDS011;2271;49.464;11.070;2022-10-31T14:55:45;60.30;;;21.77;;
4517;SDS011;2271;49.464;11.070;2022-10-31T14:58:16;47.75;;;18.55;;
4517;SDS011;2271;49.464;11.070;2022-10-31T15:01:15;31.60;;;13.25;;
4517;SDS011;2271;49.464;11.070;2022-10-31T15:03:48;23.20;;;11.40;;
4517;SDS011;2271;49.464;11.070;2022-10-31T15:06:14;15.32;;;9.07;;
4517;SDS011;2271;49.464;11.070;2022-10-31T15:08:46;14.32;;;8.98;;
4517;SDS011;2271;49.464;11.070;2022-10-31T15:11:18;16.08;;;8.05;;
4517;SDS011;2271;49.464;11.070;2022-10-31T15:13:55;14.25;;;7.45;;
4517;SDS011;2271;49.464;11.070;2022-10-31T15:16:32;12.77;;;7.07;;
4517;SDS011;2271;49.464;11.070;2022-10-31T15:19:04;12.65;;;6.80;;
4517;SDS011;2271;49.464;11.070;2022-10-31T15:21:39;10.88;;;6.90;;
4517;SDS011;2271;49.464;11.070;2022-10-31T15:24:09;11.77;;;6.68;;
4517;SDS011;2271;49.464;11.070;2022-10-31T15:26:40;23.67;;;10.73;;
4517;SDS011;2271;49.464;11.070;2022-10-31T15:29:14;25.40;;;16.08;;
4517;SDS011;2271;49.464;11.070;2022-10-31T15:31:52;31.05;;;16.95;;
4517;SDS011;2271;49.464;11.070;2022-10-31T15:34:20;18.25;;;10.75;;
4517;SDS011;2271;49.464;11.070;2022-10-31T15:36:50;13.10;;;8.15;;
4517;SDS011;2271;49.464;11.070;2022-10-31T15:39:16;13.57;;;7.63;;
4517;SDS011;2271;49.464;11.070;2022-10-31T15:41:49;12.95;;;6.78;;
4517;SDS011;2271;49.464;11.070;2022-10-31T15:46:55;11.82;;;7.97;;
4517;SDS011;2271;49.464;11.070;2022-10-31T15:49:41;11.32;;;7.72;;
4517;SDS011;2271;49.464;11.070;2022-10-31T15:54:54;17.25;;;9.35;;
4517;SDS011;2271;49.464;11.070;2022-10-31T15:57:24;18.92;;;8.75;;
4517;SDS011;2271;49.464;11.070;2022-10-31T15:59:53;13.32;;;8.10;;
4517;SDS011;2271;49.464;11.070;2022-10-31T16:02:21;12.80;;;8.40;;
4517;SDS011;2271;49.464;11.070;2022-10-31T16:04:58;15.02;;;8.45;;
4517;SDS011;2271;49.464;11.070;2022-10-31T16:07:26;16.20;;;7.30;;
4517;SDS011;2271;49.464;11.070;2022-10-31T16:09:57;12.25;;;7.82;;
4517;SDS011;2271;49.464;11.070;2022-10-31T16:12:37;12.68;;;8.50;;
4517;SDS011;2271;49.464;11.070;2022-10-31T16:15:13;14.77;;;7.95;;
4517;SDS011;2271;49.464;11.070;2022-10-31T16:17:41;19.40;;;8.75;;
4517;SDS011;2271;49.464;11.070;2022-10-31T16:20:23;15.30;;;9.02;;
4517;SDS011;2271;49.464;11.070;2022-10-31T16:22:52;10.85;;;7.95;;
4517;SDS011;2271;49.464;11.070;2022-10-31T16:25:26;13.35;;;8.50;;
4517;SDS011;2271;49.464;11.070;2022-10-31T16:27:56;14.30;;;8.85;;
4517;SDS011;2271;49.464;11.070;2022-10-31T16:30:38;9.32;;;8.07;;
4517;SDS011;2271;49.464;11.070;2022-10-31T16:35:51;13.48;;;8.80;;
4517;SDS011;2271;49.464;11.070;2022-10-31T16:38:17;15.10;;;8.90;;
4517;SDS011;2271;49.464;11.070;2022-10-31T16:40:43;13.73;;;8.23;;
4517;SDS011;2271;49.464;11.070;2022-10-31T16:43:13;18.58;;;9.02;;
4517;SDS011;2271;49.464;11.070;2022-10-31T16:45:45;12.85;;;9.02;;
4517;SDS011;2271;49.464;11.070;2022-10-31T16:48:17;22.45;;;11.38;;
4517;SDS011;2271;49.464;11.070;2022-10-31T16:50:46;20.10;;;12.60;;
4517;SDS011;2271;49.464;11.070;2022-10-31T16:53:13;17.00;;;11.82;;
4517;SDS011;2271;49.464;11.070;2022-10-31T16:55:46;18.33;;;11.05;;
4517;SDS011;2271;49.464;11.070;2022-10-31T16:58:27;14.30;;;10.05;;
4517;SDS011;2271;49.464;11.070;2022-10-31T17:00:57;18.35;;;9.85;;
4517;SDS011;2271;49.464;11.070;2022-10-31T17:03:24;24.05;;;10.90;;
4517;SDS011;2271;49.464;11.070;2022-10-31T17:05:50;13.45;;;10.43;;
4517;SDS011;2271;49.464;11.070;2022-10-31T17:08:16;18.48;;;10.73;;
4517;SDS011;2271;49.464;11.070;2022-10-31T17:10:43;11.68;;;9.00;;
4517;SDS011;2271;49.464;11.070;2022-10-31T17:13:12;16.67;;;9.77;;
4517;SDS011;2271;49.464;11.070;2022-10-31T17:15:44;17.50;;;10.82;;
4517;SDS011;2271;49.464;11.070;2022-10-31T17:18:13;18.10;;;10.32;;
4517;SDS011;2271;49.464;11.070;2022-10-31T17:20:39;14.23;;;9.98;;
4517;SDS011;2271;49.464;11.070;2022-10-31T17:23:06;13.50;;;9.75;;
4517;SDS011;2271;49.464;11.070;2022-10-31T17:25:33;13.57;;;9.48;;
4517;SDS011;2271;49.464;11.070;2022-10-31T17:28:00;18.00;;;10.27;;
4517;SDS011;2271;49.464;11.070;2022-10-31T17:30:25;13.43;;;9.40;;
4517;SDS011;2271;49.464;11.070;2022-10-31T17:32:52;14.32;;;10.32;;
4517;SDS011;2271;49.464;11.070;2022-10-31T17:35:19;15.63;;;11.93;;